Middlebury State AP, Middlebu, VT

7:02 AM EST on November 17, 2019 (GMT -0500)
Middlebury State AP, Middlebu

Weather History for K6B0 - August, 2019

Change the Weather History Date:

Tuesday, August 13, 2019

  Actual Average (WUND) Record (WUND)
Temperature  
Mean Temperature 68 °F -  
Max Temperature 79 °F - - (-1)
Min Temperature 59 °F - - (-1)
Cooling Degree Days 4    
Growing Degree Days 18 (Base 50)    
Moisture  
Dew Point 63 °F    
Average Humidity 79    
Maximum Humidity 98    
Minimum Humidity 57    
Precipitation  
Precipitation 0.08 in - - ()
Sea Level Pressure  
Sea Level Pressure 29.79 in    
Wind  
Wind Speed 2 mph ()    
Max Wind Speed 13 mph    
Max Gust Speed 17 mph    
Visibility 9.6 miles    
Events Rain    
Averages and records for this station are not official NWS values.
T = Trace of Precipitation, MM = Missing Value Source: Averaged Metar Reports

Daily Weather History Graph

Daily Weather History Graph

Search for Another Location

Airport or City:

Astronomy

Aug. 13, 2019 Rise Set
Actual Time 5:53 AM EDT 8:00 PM EDT
Civil Twilight 5:22 AM EDT 8:31 PM EDT
Nautical Twilight 4:43 AM EDT 9:10 PM EDT
Astronomical Twilight 4:00 AM EDT 9:52 PM EDT
Moon 7:16 PM EDT (8/13) 3:48 AM EDT (8/13)
Length of Visible Light 15h 09m
Length of Day
14h 06m
Waxing Gibbous, 97% of the Moon is Illuminated
Aug 13
Waxing Gibbous
Aug 15
Full
Aug 23
Last Quarter
Aug 30
New
Sep 5
First Quarter

Hourly Weather History & Observations

Time (EDT) Temp. Dew Point Humidity Pressure Visibility Wind Dir Wind Speed Gust Speed Precip Events Conditions
12:16 AM 68.9 °F 62.2 °F 79% 29.80 in 10.0 mi Calm Calm - N/A   Overcast
12:35 AM 68.9 °F 63.1 °F 82% 29.80 in 10.0 mi Calm Calm - N/A   Overcast
12:55 AM 67.8 °F 62.1 °F 82% 29.79 in 10.0 mi Calm Calm - N/A   Mostly Cloudy
1:18 AM 69.4 °F 61.7 °F 76% 29.79 in 10.0 mi Calm Calm - N/A   Overcast
1:36 AM 68.9 °F 63.0 °F 81% 29.79 in 10.0 mi Calm Calm - N/A   Overcast
1:55 AM 69.1 °F 62.8 °F 80% 29.79 in 10.0 mi North 4.6 mph - N/A   Overcast
2:15 AM 69.1 °F 62.6 °F 80% 29.79 in 10.0 mi Calm Calm - N/A   Overcast
2:16 AM 68.9 °F 62.6 °F 80% 29.79 in 10.0 mi Calm Calm - N/A   Overcast
2:38 AM 67.5 °F 63.1 °F 86% 29.78 in 10.0 mi SSE 4.6 mph - N/A   Overcast
2:56 AM 67.1 °F 63.3 °F 88% 29.78 in 10.0 mi Calm Calm - N/A   Overcast
3:16 AM 69.4 °F 62.8 °F 79% 29.78 in 10.0 mi Calm Calm - N/A Rain Rain
3:35 AM 66.9 °F 64.4 °F 92% 29.78 in 7.0 mi Calm Calm - 0.01 in Rain Rain
3:55 AM 66.4 °F 64.4 °F 93% 29.78 in 10.0 mi NE 3.5 mph - 0.02 in Rain Light Rain
3:59 AM 66.6 °F 64.4 °F 93% 29.78 in 10.0 mi Calm Calm - 0.02 in Rain Light Rain
4:17 AM 66.2 °F 64.9 °F 96% 29.78 in 7.0 mi Calm Calm - N/A Rain Light Rain
4:36 AM 65.8 °F 64.9 °F 97% 29.78 in 7.0 mi Calm Calm - 0.01 in   Overcast
4:55 AM 65.8 °F 65.3 °F 98% 29.78 in 5.0 mi Calm Calm - 0.01 in   Overcast
4:56 AM 65.8 °F 65.3 °F 98% 29.78 in 5.0 mi Calm Calm - 0.01 in   Overcast
5:15 AM 65.8 °F 64.6 °F 96% 29.79 in 7.0 mi Calm Calm - 0.03 in Rain Rain
5:39 AM 65.8 °F 64.6 °F 96% 29.79 in 7.0 mi Calm Calm - 0.04 in Rain Rain
5:57 AM 66.2 °F 64.8 °F 95% 29.79 in 10.0 mi Calm Calm - 0.04 in   Overcast
6:16 AM 66.0 °F 64.9 °F 96% 29.79 in 7.0 mi SSW 3.5 mph - N/A   Overcast
6:35 AM 66.2 °F 64.9 °F 96% 29.78 in 10.0 mi Calm Calm - N/A   Overcast
6:36 AM 66.2 °F 64.9 °F 96% 29.79 in 10.0 mi Calm Calm - N/A   Overcast
6:55 AM 66.2 °F 64.9 °F 96% 29.79 in 7.0 mi Calm Calm - N/A   Overcast
6:59 AM 66.2 °F 64.9 °F 96% 29.79 in 10.0 mi Calm Calm - N/A   Overcast
7:17 AM 66.2 °F 65.1 °F 96% 29.79 in 7.0 mi Calm Calm - 0.01 in   Overcast
7:35 AM 66.6 °F 65.3 °F 96% 29.79 in 10.0 mi Calm Calm - 0.01 in   Overcast
7:55 AM 67.6 °F 65.8 °F 94% 29.79 in 10.0 mi Calm Calm - 0.01 in   Mostly Cloudy
7:56 AM 67.8 °F 66.0 °F 94% 29.79 in 10.0 mi Calm Calm - 0.01 in   Mostly Cloudy
8:15 AM 69.1 °F 65.7 °F 89% 29.79 in 10.0 mi SW 3.5 mph - N/A   Mostly Cloudy
8:16 AM 69.1 °F 65.8 °F 89% 29.79 in 10.0 mi SW 3.5 mph - N/A   Mostly Cloudy
8:39 AM 69.8 °F 66.4 °F 89% 29.79 in 10.0 mi Calm Calm - N/A   Scattered Clouds
8:57 AM 70.5 °F 66.2 °F 86% 29.79 in 10.0 mi Calm Calm - N/A   Mostly Cloudy
9:15 AM 70.9 °F 66.2 °F 85% 29.78 in 10.0 mi SSE 4.6 mph - N/A   Overcast
9:16 AM 70.9 °F 66.4 °F 86% 29.78 in 10.0 mi SSE 4.6 mph - N/A   Mostly Cloudy
9:35 AM 72.0 °F 66.4 °F 83% 29.78 in 10.0 mi South 5.8 mph - N/A   Overcast
9:36 AM 72.0 °F 66.4 °F 83% 29.78 in 10.0 mi South 5.8 mph - N/A   Overcast
9:55 AM 73.8 °F 66.4 °F 78% 29.79 in 10.0 mi South 5.8 mph - N/A   Overcast
9:59 AM 73.6 °F 65.7 °F 76% 29.79 in 10.0 mi South 8.1 mph - N/A   Overcast
10:17 AM 73.4 °F 65.8 °F 77% 29.79 in 10.0 mi South 6.9 mph - N/A   Overcast
10:35 AM 72.9 °F 65.7 °F 78% 29.79 in 10.0 mi SSE 5.8 mph - N/A   Mostly Cloudy
10:55 AM 74.5 °F 66.0 °F 75% 29.79 in 10.0 mi SW 5.8 mph - N/A   Mostly Cloudy
10:56 AM 74.5 °F 65.8 °F 74% 29.79 in 10.0 mi SW 4.6 mph - N/A   Mostly Cloudy
11:15 AM 75.4 °F 66.4 °F 73% 29.79 in 10.0 mi SSW 5.8 mph - N/A   Mostly Cloudy
11:16 AM 75.4 °F 66.4 °F 73% 29.79 in 10.0 mi SW 5.8 mph - N/A   Mostly Cloudy
11:38 AM 75.0 °F 65.3 °F 72% 29.79 in 10.0 mi South 3.5 mph - N/A   Mostly Cloudy
11:56 AM 75.7 °F 66.4 °F 73% 29.78 in 10.0 mi South 4.6 mph - N/A   Overcast
12:15 PM 75.2 °F 66.0 °F 73% 29.78 in 10.0 mi South 4.6 mph - N/A   Mostly Cloudy
12:35 PM 75.2 °F 66.9 °F 75% 29.76 in 10.0 mi South 3.5 mph - N/A   Overcast
12:55 PM 75.2 °F 66.6 °F 74% 29.76 in 10.0 mi Calm Calm - N/A   Mostly Cloudy
1:00 PM 75.7 °F 66.4 °F 73% 29.76 in 10.0 mi Calm Calm - N/A   Mostly Cloudy
1:17 PM 76.3 °F 67.8 °F 75% 29.76 in 10.0 mi South 4.6 mph - N/A   Scattered Clouds
1:35 PM 75.9 °F 67.3 °F 74% 29.76 in 10.0 mi SSW 3.5 mph - N/A   Scattered Clouds
1:55 PM 75.9 °F 65.7 °F 70% 29.75 in 10.0 mi Calm Calm - N/A   Clear
1:56 PM 75.9 °F 65.8 °F 71% 29.75 in 10.0 mi Calm Calm - N/A   Clear
2:15 PM 77.4 °F 64.8 °F 65% 29.75 in 10.0 mi West 3.5 mph - N/A   Clear
2:16 PM 77.4 °F 64.2 °F 64% 29.75 in 10.0 mi Calm Calm - N/A   Scattered Clouds
2:38 PM 76.5 °F 63.7 °F 64% 29.75 in 10.0 mi NNW 3.5 mph - N/A   Mostly Cloudy
2:56 PM 77.9 °F 66.4 °F 68% 29.75 in 10.0 mi Calm Calm - N/A   Mostly Cloudy
3:16 PM 75.4 °F 66.0 °F 73% 29.75 in 10.0 mi North 3.5 mph - N/A Rain Light Rain
3:35 PM 78.6 °F 64.4 °F 62% 29.75 in 10.0 mi North 10.4 mph - N/A   Scattered Clouds
3:55 PM 78.1 °F 63.3 °F 60% 29.75 in 10.0 mi North 11.5 mph 17.3 mph N/A   Scattered Clouds
4:00 PM 78.3 °F 62.4 °F 58% 29.74 in 10.0 mi North 9.2 mph 17.3 mph N/A   Scattered Clouds
4:17 PM 78.8 °F 62.4 °F 57% 29.75 in 10.0 mi North 8.1 mph - N/A   Clear
4:35 PM 78.8 °F 63.0 °F 58% 29.75 in 10.0 mi North 9.2 mph - N/A   Clear
4:55 PM 77.9 °F 62.6 °F 59% 29.75 in 10.0 mi NNW 9.2 mph - N/A   Clear
4:56 PM 77.9 °F 62.6 °F 59% 29.75 in 10.0 mi NNW 9.2 mph - N/A   Clear
5:15 PM 77.4 °F 62.6 °F 60% 29.76 in 10.0 mi NNW 12.7 mph 17.3 mph N/A   Clear
5:16 PM 77.2 °F 62.2 °F 60% 29.76 in 10.0 mi NNW 11.5 mph 17.3 mph N/A   Clear
5:38 PM 75.4 °F 61.2 °F 61% 29.76 in 10.0 mi North 6.9 mph - N/A   Clear
5:56 PM 75.0 °F 60.8 °F 61% 29.76 in 10.0 mi North 8.1 mph - N/A   Clear
6:16 PM 74.7 °F 59.4 °F 59% 29.77 in 10.0 mi North 5.8 mph - N/A   Clear
6:35 PM 75.2 °F 59.9 °F 59% 29.77 in 10.0 mi North 5.8 mph - N/A   Clear
6:55 PM 74.1 °F 59.0 °F 59% 29.78 in 10.0 mi NNW 4.6 mph - N/A   Clear
7:00 PM 73.8 °F 58.5 °F 59% 29.79 in 10.0 mi NNW 3.5 mph - N/A   Clear
7:17 PM 71.4 °F 61.9 °F 72% 29.79 in 10.0 mi Calm Calm - N/A   Clear
7:35 PM 69.6 °F 62.2 °F 77% 29.79 in 10.0 mi Calm Calm - N/A   Clear
7:55 PM 67.5 °F 62.6 °F 84% 29.80 in 10.0 mi Calm Calm - N/A   Clear
7:56 PM 67.5 °F 62.6 °F 84% 29.80 in 10.0 mi Calm Calm - N/A   Clear
8:15 PM 65.8 °F 60.6 °F 83% 29.81 in 10.0 mi Calm Calm - N/A   Clear
8:16 PM 65.8 °F 60.6 °F 83% 29.81 in 10.0 mi Calm Calm - N/A   Clear
8:38 PM 64.4 °F 59.2 °F 83% 29.82 in 10.0 mi Calm Calm - N/A   Clear
8:56 PM 63.7 °F 57.9 °F 81% 29.83 in 10.0 mi Calm Calm - N/A   Clear
9:16 PM 63.5 °F 57.4 °F 80% 29.83 in 10.0 mi Calm Calm - N/A   Clear
9:35 PM 62.6 °F 57.2 °F 82% 29.84 in 10.0 mi Calm Calm - N/A   Clear
9:36 PM 62.6 °F 57.2 °F 82% 29.84 in 10.0 mi Calm Calm - N/A   Clear
9:55 PM 62.1 °F 56.3 °F 81% 29.84 in 10.0 mi Calm Calm - N/A   Clear
10:00 PM 61.2 °F 55.8 °F 82% 29.84 in 10.0 mi Calm Calm - N/A   Clear
10:18 PM 61.5 °F 56.1 °F 82% 29.84 in 10.0 mi Calm Calm - N/A   Clear
10:36 PM 60.6 °F 55.8 °F 84% 29.84 in 10.0 mi Calm Calm - N/A   Clear
10:55 PM 60.3 °F 54.9 °F 82% 29.84 in 10.0 mi Calm Calm - N/A   Clear
10:56 PM 60.3 °F 54.9 °F 82% 29.84 in 10.0 mi Calm Calm - N/A   Clear
11:15 PM 59.4 °F 54.9 °F 85% 29.84 in 10.0 mi Calm Calm - N/A   Clear
11:16 PM 59.4 °F 55.0 °F 86% 29.84 in 10.0 mi Calm Calm - N/A   Clear
11:38 PM 59.2 °F 54.9 °F 86% 29.84 in 10.0 mi Calm Calm - N/A   Clear
11:56 PM 59.4 °F 54.5 °F 84% 29.84 in 10.0 mi Calm Calm - N/A   Scattered Clouds